createdAt,value
2022-11-20T00:04:43.079Z,18.97
2022-11-20T00:09:46.134Z,17.90
2022-11-20T00:14:49.103Z,17.92
2022-11-20T00:19:51.633Z,16.93
2022-11-20T00:24:54.184Z,20.97
2022-11-20T00:29:56.979Z,20.80
2022-11-20T00:34:59.560Z,23.27
2022-11-20T00:40:02.143Z,20.33
2022-11-20T00:45:06.064Z,21.50
2022-11-20T00:50:09.070Z,22.73
2022-11-20T00:55:11.694Z,18.47
2022-11-20T01:00:16.365Z,18.50
2022-11-20T01:05:18.880Z,18.27
2022-11-20T01:10:21.456Z,24.80
2022-11-20T01:15:23.981Z,19.43
2022-11-20T01:20:26.501Z,17.83
2022-11-20T01:25:29.794Z,19.00
2022-11-20T01:30:32.386Z,19.07
2022-11-20T01:35:34.920Z,18.07
2022-11-20T01:40:37.442Z,18.90
2022-11-20T01:45:57.305Z,18.17
2022-11-20T01:51:01.984Z,18.48
2022-11-20T01:56:09.575Z,16.67
2022-11-20T02:01:13.831Z,18.37
2022-11-20T02:06:23.992Z,20.10
2022-11-20T02:11:26.524Z,17.53
2022-11-20T02:16:33.389Z,15.97
2022-11-20T02:22:00.395Z,18.33
2022-11-20T02:27:12.014Z,15.97
2022-11-20T02:32:32.952Z,17.48
2022-11-20T02:37:39.863Z,17.03
2022-11-20T02:42:42.511Z,15.13
2022-11-20T02:47:45.173Z,17.90
2022-11-20T02:52:47.924Z,16.57
2022-11-20T02:57:50.506Z,13.20
2022-11-20T03:02:53.179Z,17.30
2022-11-20T03:07:55.708Z,15.10
2022-11-20T03:12:58.407Z,16.23
2022-11-20T03:18:00.945Z,16.20
2022-11-20T03:23:03.851Z,14.73
2022-11-20T03:28:06.537Z,15.10
2022-11-20T03:33:09.334Z,13.55
2022-11-20T03:38:11.881Z,13.63
2022-11-20T03:43:14.408Z,16.00
2022-11-20T03:48:16.914Z,14.70
2022-11-20T03:53:19.664Z,14.00
2022-11-20T03:58:22.174Z,15.47
2022-11-20T04:03:24.787Z,13.00
2022-11-20T04:08:27.411Z,14.27
2022-11-20T04:13:29.972Z,16.47
2022-11-20T04:18:33.818Z,16.43
2022-11-20T04:23:36.425Z,14.80
2022-11-20T04:28:40.051Z,14.33
2022-11-20T04:33:43.918Z,13.50
2022-11-20T04:38:47.042Z,13.67
2022-11-20T04:43:51.551Z,14.40
2022-11-20T04:48:54.564Z,14.57
2022-11-20T04:53:57.759Z,15.77
2022-11-20T04:59:03.773Z,18.67
2022-11-20T05:04:06.931Z,20.13
2022-11-20T05:09:09.544Z,13.97
2022-11-20T05:14:12.110Z,16.93
2022-11-20T05:19:14.838Z,15.40
2022-11-20T05:24:17.372Z,14.80
2022-11-20T05:29:20.460Z,15.97
2022-11-20T05:34:23.604Z,18.05
2022-11-20T05:39:26.094Z,17.03
2022-11-20T05:44:28.646Z,19.40
2022-11-20T05:49:31.179Z,18.17
2022-11-20T05:54:33.817Z,19.33
2022-11-20T05:59:36.291Z,18.17
2022-11-20T06:04:38.858Z,17.30
2022-11-20T06:09:41.640Z,18.65
2022-11-20T06:14:44.362Z,19.67
2022-11-20T06:19:47.041Z,21.30
2022-11-20T06:24:49.717Z,22.37
2022-11-20T06:29:52.203Z,19.52
2022-11-20T06:34:54.855Z,18.85
2022-11-20T06:39:57.411Z,19.38
2022-11-20T06:44:59.989Z,20.05
2022-11-20T06:50:02.679Z,21.10
2022-11-20T06:55:06.438Z,22.80
2022-11-20T07:00:09.593Z,25.42
2022-11-20T07:05:12.380Z,19.75
2022-11-20T07:10:15.045Z,19.77
2022-11-20T07:15:18.338Z,30.00
2022-11-20T07:20:21.054Z,24.63
2022-11-20T07:25:24.598Z,27.85
2022-11-20T07:30:28.795Z,26.50
2022-11-20T07:35:31.394Z,25.42
2022-11-20T07:40:33.974Z,26.38
2022-11-20T07:45:36.525Z,28.92
2022-11-20T07:50:39.626Z,34.80
2022-11-20T07:55:42.144Z,33.55
2022-11-20T08:00:44.753Z,30.42
2022-11-20T08:05:47.273Z,31.60
2022-11-20T08:10:49.835Z,33.60
2022-11-20T08:15:52.469Z,31.75
2022-11-20T08:20:55.058Z,25.77
2022-11-20T08:25:57.536Z,30.63
2022-11-20T08:31:04.320Z,27.38
2022-11-20T08:36:08.392Z,24.45
2022-11-20T08:41:29.298Z,27.40
2022-11-20T08:46:37.956Z,29.08
2022-11-20T08:51:41.025Z,29.92
2022-11-20T08:56:43.556Z,31.45
2022-11-20T09:01:46.132Z,25.58
2022-11-20T09:06:52.031Z,30.58
2022-11-20T09:11:54.801Z,33.00
2022-11-20T09:16:57.825Z,33.83
2022-11-20T09:22:01.146Z,29.00
2022-11-20T09:27:05.565Z,30.75
2022-11-20T09:32:08.134Z,37.42
2022-11-20T09:37:11.160Z,34.58
2022-11-20T09:42:38.507Z,33.47
2022-11-20T09:48:00.705Z,30.90
2022-11-20T09:53:14.708Z,30.50
2022-11-20T09:58:41.247Z,30.00
2022-11-20T10:03:59.154Z,34.05
2022-11-20T10:09:15.398Z,32.13
2022-11-20T10:14:42.574Z,36.85
2022-11-20T10:20:28.061Z,28.83
2022-11-20T10:25:59.077Z,29.30
2022-11-20T10:31:05.562Z,32.30
2022-11-20T10:36:20.226Z,32.30
2022-11-20T10:41:31.926Z,24.15
2022-11-20T10:46:59.928Z,24.85
2022-11-20T10:52:26.912Z,24.27
2022-11-20T10:58:08.236Z,23.38
2022-11-20T11:03:24.406Z,18.97
2022-11-20T11:08:34.141Z,18.67
2022-11-20T11:13:36.771Z,16.98
2022-11-20T11:18:41.139Z,19.33
2022-11-20T11:23:44.480Z,16.50
2022-11-20T11:28:57.863Z,20.75
2022-11-20T11:34:17.980Z,20.48
2022-11-20T11:39:22.457Z,18.13
2022-11-20T11:45:03.310Z,21.73
2022-11-20T11:50:26.535Z,22.83
2022-11-20T11:55:44.215Z,20.13
2022-11-20T12:00:55.227Z,17.55
2022-11-20T12:06:17.447Z,23.15
2022-11-20T12:12:05.980Z,20.13
2022-11-20T12:17:12.837Z,20.95
2022-11-20T12:22:50.116Z,22.05
2022-11-20T12:28:37.965Z,21.77
2022-11-20T12:33:52.654Z,18.90
2022-11-20T12:39:03.678Z,17.95
2022-11-20T12:44:54.506Z,14.50
2022-11-20T12:50:06.193Z,16.00
2022-11-20T12:55:18.106Z,20.42
2022-11-20T13:05:39.231Z,20.40
2022-11-20T13:10:52.886Z,18.55
2022-11-20T13:16:17.136Z,19.85
2022-11-20T13:21:36.829Z,16.90
2022-11-20T13:26:40.047Z,17.25
2022-11-20T13:31:46.452Z,14.70
2022-11-20T13:36:54.349Z,15.05
2022-11-20T13:42:02.760Z,18.60
2022-11-20T13:47:21.001Z,17.92
2022-11-20T13:52:45.347Z,18.70
2022-11-20T13:57:47.743Z,17.73
2022-11-20T14:02:59.128Z,16.40
2022-11-20T14:08:06.697Z,22.08
2022-11-20T14:13:21.688Z,18.77
2022-11-20T14:18:27.010Z,21.65
2022-11-20T14:23:30.606Z,16.85
2022-11-20T14:28:33.607Z,19.67
2022-11-20T14:33:37.793Z,16.98
2022-11-20T14:38:41.720Z,16.33
2022-11-20T14:43:48.646Z,17.45
2022-11-20T14:49:01.335Z,15.65
2022-11-20T14:54:10.917Z,16.73
2022-11-20T14:59:27.483Z,18.20
2022-11-20T15:04:31.276Z,16.63
2022-11-20T15:09:34.682Z,21.20
2022-11-20T15:14:37.771Z,16.65
2022-11-20T15:19:40.329Z,17.90
2022-11-20T15:24:43.427Z,16.15
2022-11-20T15:29:46.056Z,16.73
2022-11-20T15:34:48.695Z,17.25
2022-11-20T15:39:51.470Z,18.48
2022-11-20T15:44:53.972Z,15.65
2022-11-20T15:49:56.759Z,17.70
2022-11-20T15:54:59.311Z,16.63
2022-11-20T16:00:02.030Z,18.65
2022-11-20T16:05:14.996Z,18.45
2022-11-20T16:10:17.633Z,19.95
2022-11-20T16:15:38.560Z,17.60
2022-11-20T16:20:41.128Z,19.98
2022-11-20T16:25:44.495Z,20.95
2022-11-20T16:30:47.510Z,23.20
2022-11-20T16:35:50.115Z,20.98
2022-11-20T16:40:52.668Z,18.38
2022-11-20T16:45:55.288Z,19.20
2022-11-20T16:50:57.808Z,19.40
2022-11-20T16:56:14.282Z,19.65
2022-11-20T17:01:21.578Z,22.42
2022-11-20T17:06:26.945Z,18.52
2022-11-20T17:11:29.771Z,16.38
2022-11-20T17:16:32.460Z,18.30
2022-11-20T17:21:36.526Z,18.35
2022-11-20T17:26:41.672Z,19.17
2022-11-20T17:31:45.307Z,23.02
2022-11-20T17:36:47.894Z,23.55
2022-11-20T17:42:10.396Z,20.85
2022-11-20T17:47:13.584Z,20.55
2022-11-20T17:52:17.182Z,18.60
2022-11-20T17:57:38.727Z,20.85
2022-11-20T18:02:41.248Z,20.50
2022-11-20T18:07:44.464Z,23.35
2022-11-20T18:12:46.973Z,21.75
2022-11-20T18:17:49.523Z,22.98
2022-11-20T18:22:52.090Z,23.70
2022-11-20T18:27:54.764Z,21.38
2022-11-20T18:32:57.723Z,23.13
2022-11-20T18:38:00.364Z,20.88
2022-11-20T18:43:21.990Z,26.00
2022-11-20T18:48:24.636Z,22.20
2022-11-20T18:53:27.188Z,21.98
2022-11-20T18:58:29.763Z,22.42
2022-11-20T19:03:32.453Z,20.48
2022-11-20T19:08:36.359Z,25.58
2022-11-20T19:13:39.651Z,21.17
2022-11-20T19:18:43.778Z,21.08
2022-11-20T19:23:51.664Z,20.60
2022-11-20T19:28:55.350Z,19.65
2022-11-20T19:34:02.857Z,24.83
2022-11-20T19:39:07.728Z,23.05
2022-11-20T19:44:14.007Z,22.35
2022-11-20T19:49:16.635Z,22.40
2022-11-20T19:54:19.232Z,27.85
2022-11-20T19:59:22.027Z,24.20
2022-11-20T20:04:25.111Z,21.65
2022-11-20T20:09:27.706Z,20.55
2022-11-20T20:14:31.583Z,23.60
2022-11-20T20:19:34.288Z,19.95
2022-11-20T20:24:36.817Z,21.85
2022-11-20T20:29:39.431Z,20.00
2022-11-20T20:34:42.323Z,19.70
2022-11-20T20:39:44.851Z,20.58
2022-11-20T20:45:05.826Z,21.70
2022-11-20T20:50:11.185Z,14.85
2022-11-20T20:55:13.847Z,18.63
2022-11-20T21:00:18.139Z,22.88
2022-11-20T21:05:20.730Z,21.73
2022-11-20T21:10:23.991Z,25.75
2022-11-20T21:15:27.035Z,19.85
2022-11-20T21:20:48.003Z,25.00
2022-11-20T21:25:50.515Z,20.25
2022-11-20T21:30:53.141Z,24.08
2022-11-20T21:35:58.524Z,22.40
2022-11-20T21:41:01.942Z,21.40
2022-11-20T21:46:09.915Z,22.90
2022-11-20T21:51:15.400Z,23.80
2022-11-20T21:56:20.701Z,24.50
2022-11-20T22:01:29.432Z,24.30
2022-11-20T22:06:34.105Z,24.80
2022-11-20T22:16:39.400Z,23.45
2022-11-20T22:21:42.130Z,22.13
2022-11-20T22:26:44.932Z,22.20
2022-11-20T22:31:48.068Z,22.48
2022-11-20T22:36:50.604Z,25.00
2022-11-20T22:41:53.127Z,28.45
2022-11-20T22:46:55.686Z,28.15
2022-11-20T22:51:58.231Z,28.90
2022-11-20T22:57:00.787Z,29.52
2022-11-20T23:02:03.421Z,29.77
2022-11-20T23:07:06.155Z,31.00
2022-11-20T23:12:08.695Z,24.83
2022-11-20T23:17:11.232Z,26.08
2022-11-20T23:22:13.759Z,30.70
2022-11-20T23:27:19.669Z,27.70
2022-11-20T23:32:22.603Z,25.90
2022-11-20T23:37:25.118Z,27.65
2022-11-20T23:42:27.694Z,27.52
2022-11-20T23:47:30.266Z,28.67
2022-11-20T23:52:32.862Z,29.20
2022-11-20T23:57:35.496Z,30.83
